Time;durP1;ratioP1;P1;durP2;ratioP2;P2;SDS_P1;SDS_P2;PMS_P1;PMS_P2;Temp;Humidity;BMP_temperature;BMP_pressure;BME280_temperature;BME280_humidity;BME280_pressure;Samples;Min_cycle;Max_cycle;Signal;HPM_P1;HPM_P2
2022/10/21 00:00:25;;;;;;;45.00;25.73;;;;;;;12.61;100.00;96501.66;4979930;28;20523;-66
2022/10/21 00:02:50;;;;;;;57.22;26.98;;;;;;;12.41;100.00;96492.13;4983411;28;20542;-66
2022/10/21 00:05:16;;;;;;;43.38;26.88;;;;;;;12.41;100.00;96497.63;4977708;28;20042;-66
2022/10/21 00:07:41;;;;;;;50.22;26.98;;;;;;;12.49;100.00;96506.69;4980928;28;20061;-66
2022/10/21 00:10:07;;;;;;;51.17;27.65;;;;;;;12.48;100.00;96503.16;4982800;28;20049;-66
2022/10/21 00:12:34;;;;;;;44.03;25.42;;;;;;;12.54;100.00;96500.81;4982509;28;20128;-66
2022/10/21 00:14:59;;;;;;;48.85;27.10;;;;;;;12.55;100.00;96492.22;4976736;28;20145;-66
2022/10/21 00:17:25;;;;;;;48.88;27.70;;;;;;;12.44;100.00;96472.13;4974844;28;20125;-66
2022/10/21 00:19:50;;;;;;;50.83;25.25;;;;;;;12.36;100.00;96473.25;4977744;28;20117;-66
2022/10/21 00:22:15;;;;;;;46.30;26.58;;;;;;;12.41;100.00;96470.94;4974125;28;20108;-67
2022/10/21 00:24:41;;;;;;;50.83;28.45;;;;;;;12.36;100.00;96457.56;4979365;28;20047;-66
2022/10/21 00:27:06;;;;;;;56.63;29.42;;;;;;;12.28;100.00;96460.66;4971654;28;20126;-66
2022/10/21 00:29:32;;;;;;;46.38;28.50;;;;;;;12.27;100.00;96475.56;4980282;28;20100;-67
2022/10/21 00:31:57;;;;;;;56.20;28.65;;;;;;;12.40;100.00;96498.78;4982879;28;20488;-68
2022/10/21 00:34:22;;;;;;;52.97;30.38;;;;;;;12.37;100.00;96507.78;4977658;28;20507;-67
2022/10/21 00:36:48;;;;;;;56.47;30.02;;;;;;;12.34;100.00;96519.53;4982649;28;20050;-66
2022/10/21 00:39:14;;;;;;;55.92;30.73;;;;;;;12.47;100.00;96542.78;4976344;28;20057;-67
2022/10/21 00:41:39;;;;;;;66.07;32.08;;;;;;;12.50;100.00;96543.97;4972856;28;20054;-67
2022/10/21 00:44:08;;;;;;;47.75;27.60;;;;;;;12.60;100.00;96545.97;4977933;28;20379;-67
2022/10/21 00:46:58;;;;;;;59.78;29.95;;;;;;;12.55;100.00;96543.59;4973967;28;20057;-66
2022/10/21 00:49:28;;;;;;;58.70;30.30;;;;;;;12.40;100.00;96509.75;4974836;28;20595;-66
2022/10/21 00:51:58;;;;;;;56.85;30.75;;;;;;;12.28;100.00;96507.31;4982685;28;20038;-66
2022/10/21 00:54:25;;;;;;;68.45;36.28;;;;;;;12.28;100.00;96494.41;4977583;28;20477;-67
2022/10/21 00:56:53;;;;;;;67.22;33.25;;;;;;;12.24;100.00;96497.13;4982490;28;20496;-66
2022/10/21 00:59:20;;;;;;;60.13;30.40;;;;;;;12.28;100.00;96490.84;4969863;28;20043;-66
2022/10/21 01:01:47;;;;;;;60.30;30.30;;;;;;;12.56;100.00;96484.75;4975257;28;20050;-66
2022/10/21 01:04:13;;;;;;;65.78;32.70;;;;;;;12.38;100.00;96460.72;4977812;28;20105;-66
2022/10/21 01:06:39;;;;;;;61.22;33.05;;;;;;;12.24;100.00;96438.66;4981264;28;20038;-66
2022/10/21 01:09:05;;;;;;;60.95;33.33;;;;;;;12.23;100.00;96412.38;4969975;28;20365;-66
2022/10/21 01:11:41;;;;;;;69.25;35.25;;;;;;;12.15;100.00;96399.78;4978670;28;20109;-66
2022/10/21 01:14:22;;;;;;;68.70;33.42;;;;;;;12.08;100.00;96411.50;4976549;28;20050;-66
2022/10/21 01:17:09;;;;;;;64.65;33.08;;;;;;;12.17;100.00;96424.91;4972197;28;20046;-67
2022/10/21 01:20:16;;;;;;;60.97;31.30;;;;;;;12.31;100.00;96430.47;4977412;28;20067;-67
2022/10/21 01:23:08;;;;;;;61.53;32.90;;;;;;;12.23;100.00;96443.38;4980930;28;20519;-68
2022/10/21 01:25:48;;;;;;;56.50;31.25;;;;;;;12.23;100.00;96450.84;4980775;28;20569;-67
2022/10/21 01:28:41;;;;;;;57.25;30.70;;;;;;;12.34;100.00;96451.66;4981629;28;20042;-66
2022/10/21 01:31:31;;;;;;;68.88;32.58;;;;;;;12.42;100.00;96456.03;4969599;28;20050;-65
2022/10/21 01:34:25;;;;;;;64.53;30.90;;;;;;;12.50;100.00;96458.81;4981328;28;20073;-66
2022/10/21 01:37:25;;;;;;;57.35;30.38;;;;;;;12.54;100.00;96459.63;4977859;28;20070;-66
2022/10/21 01:40:02;;;;;;;63.28;31.05;;;;;;;12.54;100.00;96465.91;4979939;28;20141;-66
2022/10/21 01:42:38;;;;;;;49.92;28.58;;;;;;;12.68;100.00;96456.94;4980691;28;20049;-68
2022/10/21 01:45:09;;;;;;;55.13;29.75;;;;;;;12.66;100.00;96462.03;4976615;28;20070;-67
2022/10/21 01:47:48;;;;;;;49.75;28.00;;;;;;;12.61;100.00;96465.94;4975340;28;20047;-67
2022/10/21 01:50:19;;;;;;;60.47;28.65;;;;;;;12.72;100.00;96460.47;4966409;28;20038;-66
2022/10/21 01:52:48;;;;;;;46.47;28.33;;;;;;;12.72;100.00;96463.22;4981907;28;20046;-67
2022/10/21 01:55:18;;;;;;;51.00;28.90;;;;;;;12.56;100.00;96452.56;4976408;28;20121;-67
2022/10/21 01:57:50;;;;;;;51.53;27.40;;;;;;;12.59;100.00;96445.53;4976692;28;20042;-66
2022/10/21 02:00:16;;;;;;;51.22;26.33;;;;;;;12.59;100.00;96443.56;4968610;28;20038;-67
2022/10/21 02:02:47;;;;;;;51.40;27.27;;;;;;;12.61;100.00;96437.69;4981436;28;20051;-67
2022/10/21 02:05:17;;;;;;;50.35;27.67;;;;;;;12.74;100.00;96436.16;4976239;28;20046;-66
2022/10/21 02:07:43;;;;;;;48.80;27.40;;;;;;;12.74;100.00;96443.59;4975279;28;20042;-66
2022/10/21 02:10:08;;;;;;;55.47;27.77;;;;;;;12.65;100.00;96451.44;4969250;28;20361;-66
2022/10/21 02:12:37;;;;;;;58.80;29.88;;;;;;;12.54;100.00;96438.41;4975762;28;20043;-66
2022/10/21 02:15:06;;;;;;;53.78;28.23;;;;;;;12.38;100.00;96430.50;4969187;28;20120;-67
2022/10/21 02:17:35;;;;;;;54.53;29.15;;;;;;;12.23;100.00;96418.66;4977901;28;20050;-66
2022/10/21 02:20:05;;;;;;;63.95;29.33;;;;;;;12.24;100.00;96403.78;4973061;28;20042;-66
2022/10/21 02:22:31;;;;;;;;;;;;;;;12.23;100.00;96406.91;4989199;28;20131;-65
2022/10/21 02:25:02;;;;;;;58.38;28.50;;;;;;;12.41;100.00;96423.47;4981561;28;20544;-65
2022/10/21 02:27:27;;;;;;;54.90;28.08;;;;;;;12.62;100.00;96433.75;4968419;28;20057;-65
2022/10/21 02:29:56;;;;;;;54.88;30.15;;;;;;;12.59;100.00;96423.53;4975669;28;20392;-67
2022/10/21 02:32:42;;;;;;;53.30;28.27;;;;;;;12.48;100.00;96429.00;4976733;28;20197;-67
2022/10/21 02:35:30;;;;;;;54.30;26.58;;;;;;;12.56;100.00;96430.56;4976548;28;20038;-66
2022/10/21 02:38:14;;;;;;;51.72;27.10;;;;;;;12.78;100.00;96444.41;4978168;28;20141;-64
2022/10/21 02:40:42;;;;;;;51.22;25.92;;;;;;;12.75;100.00;96442.44;4980524;28;20053;-66
2022/10/21 02:43:16;;;;;;;52.65;27.27;;;;;;;12.59;100.00;96442.78;4974137;28;20046;-67
2022/10/21 02:45:45;;;;;;;52.97;27.38;;;;;;;12.51;100.00;96433.69;4980377;28;20792;-67
2022/10/21 02:48:10;;;;;;;58.00;27.98;;;;;;;12.45;100.00;96420.72;4974653;28;20049;-65
2022/10/21 02:50:36;;;;;;;47.22;27.92;;;;;;;12.45;100.00;96415.25;4979309;28;20070;-67
2022/10/21 02:53:01;;;;;;;53.75;29.60;;;;;;;12.40;100.00;96400.69;4984822;28;20399;-66
2022/10/21 02:55:27;;;;;;;54.47;28.70;;;;;;;12.55;100.00;96395.25;4978985;28;20432;-66
2022/10/21 02:57:53;;;;;;;55.90;29.50;;;;;;;12.46;100.00;96392.06;4974306;28;20042;-68
2022/10/21 03:00:18;;;;;;;57.72;31.05;;;;;;;12.39;100.00;96379.13;4980209;28;20105;-68
2022/10/21 03:02:43;;;;;;;62.35;31.10;;;;;;;12.12;100.00;96357.44;4985202;28;20042;-67
2022/10/21 03:05:11;;;;;;;68.78;34.13;;;;;;;12.01;100.00;96345.59;4979384;28;20047;-66
2022/10/21 03:07:37;;;;;;;64.43;33.58;;;;;;;12.10;100.00;96350.72;4984639;28;20046;-67
2022/10/21 03:10:02;;;;;;;55.85;29.20;;;;;;;12.16;100.00;96357.44;4983325;28;20516;-69
2022/10/21 03:12:28;;;;;;;66.72;31.27;;;;;;;12.13;100.00;96353.50;4979277;28;20589;-66
2022/10/21 03:14:53;;;;;;;59.72;31.25;;;;;;;12.07;100.00;96348.78;4977675;28;20083;-68
2022/10/21 03:17:19;;;;;;;68.20;32.90;;;;;;;12.27;100.00;96349.25;4977504;28;20381;-66
2022/10/21 03:19:44;;;;;;;58.78;28.83;;;;;;;12.31;100.00;96345.34;4975827;28;20030;-67
2022/10/21 03:22:09;;;;;;;55.47;31.50;;;;;;;12.37;100.00;96337.50;4978980;28;20035;-67
2022/10/21 03:24:35;;;;;;;51.15;27.23;;;;;;;12.43;100.00;96344.22;4982869;28;20496;-67
2022/10/21 03:27:00;;;;;;;59.05;29.42;;;;;;;12.46;100.00;96350.88;4975395;28;20042;-67
2022/10/21 03:29:26;;;;;;;56.05;29.23;;;;;;;12.38;100.00;96341.84;4974282;28;20136;-67
2022/10/21 03:31:51;;;;;;;58.92;30.55;;;;;;;12.23;100.00;96339.03;4984551;28;20392;-66
2022/10/21 03:34:17;;;;;;;57.10;30.10;;;;;;;12.19;100.00;96342.94;4978214;28;20141;-66
2022/10/21 03:36:42;;;;;;;60.58;29.48;;;;;;;12.28;100.00;96348.06;4965375;28;20053;-66
2022/10/21 03:39:09;;;;;;;51.80;29.08;;;;;;;12.51;100.00;96345.00;4979435;28;20391;-66
2022/10/21 03:41:35;;;;;;;52.85;27.83;;;;;;;12.46;100.00;96353.63;4963429;28;20050;-67
2022/10/21 03:44:00;;;;;;;58.30;28.45;;;;;;;12.41;100.00;96358.31;4977303;28;20279;-66
2022/10/21 03:46:25;;;;;;;51.15;28.05;;;;;;;12.54;100.00;96353.25;4976614;28;20496;-66
2022/10/21 03:48:51;;;;;;;51.00;26.15;;;;;;;12.61;100.00;96352.50;4983811;28;20045;-66
2022/10/21 03:51:16;;;;;;;50.45;26.40;;;;;;;12.50;100.00;96363.47;4977487;28;20062;-67
2022/10/21 03:53:41;;;;;;;49.72;27.75;;;;;;;12.38;100.00;96383.81;4983747;28;20093;-65
2022/10/21 03:56:07;;;;;;;51.17;27.30;;;;;;;12.40;100.00;96391.66;4976057;28;20491;-65
2022/10/21 03:58:34;;;;;;;46.60;27.88;;;;;;;12.41;100.00;96382.25;4983368;28;20043;-66
2022/10/21 04:01:00;;;;;;;50.88;28.83;;;;;;;12.37;100.00;96364.97;4981755;28;20042;-65
2022/10/21 04:03:26;;;;;;;60.33;30.45;;;;;;;12.30;100.00;96354.75;4967450;28;20117;-66
2022/10/21 04:05:52;;;;;;;66.57;32.08;;;;;;;12.26;100.00;96361.41;4982518;28;20077;-67
2022/10/21 04:08:17;;;;;;;72.15;32.03;;;;;;;12.25;100.00;96366.09;4978296;28;20038;-67
2022/10/21 04:10:44;;;;;;;52.70;28.10;;;;;;;12.31;100.00;96374.75;4981365;28;20050;-67
2022/10/21 04:13:10;;;;;;;50.80;29.42;;;;;;;12.51;100.00;96381.50;4969394;28;20045;-66
2022/10/21 04:15:36;;;;;;;58.35;29.05;;;;;;;12.76;100.00;96367.06;4982759;28;20417;-66
2022/10/21 04:18:04;;;;;;;47.60;27.52;;;;;;;12.87;100.00;96343.13;4980654;28;20118;-67
2022/10/21 04:20:30;;;;;;;56.22;26.60;;;;;;;12.64;100.00;96338.00;4982797;28;20038;-66
2022/10/21 04:22:56;;;;;;;46.80;25.75;;;;;;;12.60;100.00;96331.69;4979288;28;20041;-66
2022/10/21 04:25:22;;;;;;;46.22;26.25;;;;;;;12.49;100.00;96337.16;4977359;28;20741;-67
2022/10/21 04:27:47;;;;;;;53.47;30.95;;;;;;;12.47;100.00;96325.78;4973422;28;20049;-67
2022/10/21 04:30:12;;;;;;;49.05;26.60;;;;;;;12.61;100.00;96316.78;4978708;28;20065;-67
2022/10/21 04:32:38;;;;;;;49.08;26.23;;;;;;;12.61;100.00;96312.06;4979589;28;20046;-65
2022/10/21 04:35:04;;;;;;;46.35;26.70;;;;;;;12.37;100.00;96301.81;4978871;28;20133;-69
2022/10/21 04:37:29;;;;;;;52.38;28.08;;;;;;;12.29;100.00;96290.03;4981055;28;20049;-65
2022/10/21 04:39:56;;;;;;;46.25;25.60;;;;;;;12.35;100.00;96298.66;4984340;28;20035;-65
2022/10/21 04:42:22;;;;;;;57.53;31.77;;;;;;;12.43;100.00;96305.75;4972292;28;20060;-66
2022/10/21 04:44:47;;;;;;;57.50;34.63;;;;;;;12.45;100.00;96297.13;4966191;28;20042;-67
2022/10/21 04:47:13;;;;;;;56.97;32.45;;;;;;;12.51;100.00;96290.84;4973959;28;20542;-68
2022/10/21 04:49:39;;;;;;;49.60;29.35;;;;;;;12.51;100.00;96293.59;4981570;28;20770;-67
2022/10/21 04:52:04;;;;;;;52.72;29.73;;;;;;;12.52;100.00;96283.41;4978298;28;20050;-68
2022/10/21 04:54:29;;;;;;;49.40;29.35;;;;;;;12.54;100.00;96275.56;4979633;28;20042;-67
2022/10/21 04:56:55;;;;;;;48.92;28.30;;;;;;;12.50;100.00;96266.53;4975319;28;20034;-69
2022/10/21 04:59:20;;;;;;;46.17;27.23;;;;;;;12.65;100.00;96265.38;4976523;28;20499;-68
2022/10/21 05:01:45;;;;;;;45.95;26.92;;;;;;;12.85;100.00;96265.00;4971370;28;20169;-66
2022/10/21 05:04:11;;;;;;;43.33;25.23;;;;;;;12.78;100.00;96268.53;4977234;28;20369;-66
2022/10/21 05:06:36;;;;;;;46.78;26.00;;;;;;;12.52;100.00;96244.97;4981569;28;20148;-67
2022/10/21 05:09:02;;;;;;;55.40;27.42;;;;;;;12.41;100.00;96232.00;4980619;28;20052;-70
2022/10/21 05:11:29;;;;;;;54.47;26.65;;;;;;;12.53;100.00;96250.06;4978476;28;20443;-68
2022/10/21 05:13:55;;;;;;;45.70;26.08;;;;;;;12.70;100.00;96239.50;4990405;28;20105;-67
2022/10/21 05:16:20;;;;;;;43.63;24.10;;;;;;;12.69;100.00;96224.16;4977762;28;20507;-66
2022/10/21 05:18:46;;;;;;;38.80;22.90;;;;;;;12.48;100.00;96208.44;4977769;28;20050;-65
2022/10/21 05:21:12;;;;;;;44.13;26.08;;;;;;;12.45;100.00;96206.50;4975984;28;20439;-67
2022/10/21 05:23:37;;;;;;;44.55;25.13;;;;;;;12.46;100.00;96214.34;4982016;28;20062;-67
2022/10/21 05:26:03;;;;;;;46.00;24.83;;;;;;;12.50;100.00;96215.13;4977574;28;20042;-69
2022/10/21 05:28:28;;;;;;;45.10;24.48;;;;;;;12.47;100.00;96206.88;4972671;28;20049;-67
2022/10/21 05:30:54;;;;;;;55.95;28.67;;;;;;;12.31;100.00;96208.03;4981333;28;20053;-67
2022/10/21 05:33:19;;;;;;;53.28;27.45;;;;;;;12.25;100.00;96201.38;4976189;28;20563;-67
2022/10/21 05:35:54;;;;;;;52.00;27.35;;;;;;;12.14;100.00;96192.34;4981380;28;20109;-67
2022/10/21 05:38:20;;;;;;;57.05;29.23;;;;;;;11.96;100.00;96197.78;4975073;28;20046;-68
2022/10/21 05:40:46;;;;;;;66.20;29.90;;;;;;;11.89;100.00;96187.53;4977554;28;20039;-69
2022/10/21 05:43:12;;;;;;;53.22;27.73;;;;;;;11.86;100.00;96189.06;4972073;28;20133;-67
2022/10/21 05:45:37;;;;;;;56.88;27.90;;;;;;;11.90;100.00;96194.59;4981419;28;20129;-66
2022/10/21 05:48:03;;;;;;;54.30;28.63;;;;;;;11.92;100.00;96192.28;4978919;28;20407;-70
2022/10/21 05:50:28;;;;;;;48.83;27.55;;;;;;;11.95;100.00;96191.47;4977800;28;20133;-69
2022/10/21 05:52:56;;;;;;;52.47;27.70;;;;;;;12.01;100.00;96200.13;4981425;28;20050;-68
2022/10/21 05:55:22;;;;;;;53.75;29.55;;;;;;;12.00;100.00;96204.84;4974518;28;20422;-69
2022/10/21 05:57:47;;;;;;;46.00;27.73;;;;;;;12.02;100.00;96210.72;4973442;28;20137;-66
2022/10/21 06:00:13;;;;;;;57.20;29.30;;;;;;;12.07;100.00;96206.03;4976468;28;20492;-66
2022/10/21 06:02:38;;;;;;;56.75;26.70;;;;;;;12.08;100.00;96213.88;4980554;28;20092;-65
2022/10/21 06:05:04;;;;;;;45.10;26.05;;;;;;;12.28;100.00;96224.50;4980080;28;20042;-66
2022/10/21 06:07:30;;;;;;;49.53;25.60;;;;;;;12.33;100.00;96218.63;4982687;28;20043;-65
2022/10/21 06:09:55;;;;;;;40.60;25.67;;;;;;;12.37;100.00;96227.66;4981398;28;20400;-65
2022/10/21 06:12:21;;;;;;;44.55;24.45;;;;;;;12.45;100.00;96239.47;4967837;28;20542;-65
2022/10/21 06:14:47;;;;;;;46.85;23.38;;;;;;;12.39;100.00;96237.09;4963913;28;20049;-66
2022/10/21 06:17:12;;;;;;;40.60;23.88;;;;;;;12.43;100.00;96234.34;4970697;28;20511;-66
2022/10/21 06:19:37;;;;;;;44.10;24.42;;;;;;;12.45;100.00;96220.22;4985150;28;20106;-65
2022/10/21 06:22:03;;;;;;;34.63;21.52;;;;;;;12.44;100.00;96216.69;4980891;28;20049;-68
2022/10/21 06:24:28;;;;;;;36.17;22.77;;;;;;;12.52;100.00;96217.50;4979259;28;20130;-67
2022/10/21 06:26:54;;;;;;;40.05;21.75;;;;;;;12.55;100.00;96213.94;4975425;28;20332;-64
2022/10/21 06:29:19;;;;;;;53.17;29.88;;;;;;;12.48;100.00;96212.00;4980889;28;20542;-64
2022/10/21 06:31:45;;;;;;;39.47;23.83;;;;;;;12.49;100.00;96210.03;4984808;28;20105;-64
2022/10/21 06:34:10;;;;;;;38.30;24.48;;;;;;;12.30;100.00;96195.50;4980538;28;20482;-65
2022/10/21 06:36:38;;;;;;;36.80;23.02;;;;;;;12.28;100.00;96200.59;4983083;28;20503;-64
2022/10/21 06:39:05;;;;;;;42.03;24.95;;;;;;;12.34;100.00;96188.03;4982101;28;20100;-62
2022/10/21 06:41:30;;;;;;;40.58;24.63;;;;;;;12.36;100.00;96182.94;4981519;28;20054;-64
2022/10/21 06:43:56;;;;;;;43.60;24.13;;;;;;;12.49;100.00;96177.06;4986493;28;20038;-64
2022/10/21 06:46:21;;;;;;;41.53;23.98;;;;;;;12.65;100.00;96173.94;4979110;28;20213;-63
2022/10/21 06:48:47;;;;;;;44.08;23.45;;;;;;;12.76;100.00;96183.72;4984204;28;20506;-63
2022/10/21 06:51:20;;;;;;;39.80;22.80;;;;;;;12.87;100.00;96186.47;4980640;28;20038;-64
2022/10/21 06:53:50;;;;;;;38.80;23.15;;;;;;;12.84;100.00;96183.72;4985452;28;20509;-65
2022/10/21 06:56:16;;;;;;;;;;;;;;;12.79;100.00;96204.16;4979342;28;20049;-63
2022/10/21 06:58:47;;;;;;;48.50;24.65;;;;;;;12.74;100.00;96212.78;4983889;28;20316;-63
2022/10/21 07:01:19;;;;;;;40.42;24.35;;;;;;;12.76;100.00;96235.16;4980103;28;20057;-62
2022/10/21 07:03:44;;;;;;;41.60;23.42;;;;;;;12.76;100.00;96263.41;4983741;28;20051;-62
2022/10/21 07:06:10;;;;;;;38.83;22.63;;;;;;;12.75;100.00;96303.06;4971831;28;20094;-64
2022/10/21 07:08:36;;;;;;;43.33;23.75;;;;;;;12.60;100.00;96331.69;4984627;28;20480;-64
2022/10/21 07:11:02;;;;;;;49.97;25.10;;;;;;;12.54;100.00;96353.25;4973592;28;20129;-64
2022/10/21 07:13:28;;;;;;;45.35;25.55;;;;;;;12.55;100.00;96371.34;4973576;28;20091;-63
2022/10/21 07:16:14;;;;;;;48.40;26.13;;;;;;;12.60;100.00;96386.63;4977369;28;20044;-65
2022/10/21 07:18:39;;;;;;;41.08;24.55;;;;;;;12.84;100.00;96387.91;4993824;28;20120;-65
2022/10/21 07:21:07;;;;;;;44.72;24.50;;;;;;;12.99;100.00;96391.47;4985780;28;20042;-65
2022/10/21 07:23:34;;;;;;;44.33;26.25;;;;;;;13.07;100.00;96409.56;4984343;28;20104;-63
2022/10/21 07:26:07;;;;;;;46.55;27.38;;;;;;;13.26;100.00;96411.13;4984390;28;20043;-64
2022/10/21 07:28:34;;;;;;;49.25;27.77;;;;;;;13.29;100.00;96426.06;4981204;28;20074;-64
2022/10/21 07:31:00;;;;;;;47.25;25.83;;;;;;;13.34;100.00;96429.25;4996189;28;20133;-65
2022/10/21 07:33:26;;;;;;;47.47;24.13;;;;;;;13.36;100.00;96446.16;4977905;28;20082;-64
2022/10/21 07:36:05;;;;;;;40.30;23.30;;;;;;;13.44;100.00;96451.66;4983211;28;20050;-63
2022/10/21 07:38:31;;;;;;;40.83;21.20;;;;;;;13.47;100.00;96454.44;4974455;28;20042;-66
2022/10/21 07:40:57;;;;;;;44.67;23.10;;;;;;;13.43;100.00;96453.63;4983915;28;20042;-64
2022/10/21 07:43:23;;;;;;;41.45;24.83;;;;;;;13.54;100.00;96448.94;4976617;28;20588;-64
2022/10/21 07:45:48;;;;;;;43.25;23.48;;;;;;;13.61;100.00;96444.59;4983200;28;20089;-65
2022/10/21 07:48:14;;;;;;;48.53;22.70;;;;;;;13.76;100.00;96424.16;4979507;28;20042;-64
2022/10/21 07:50:39;;;;;;;42.67;24.63;;;;;;;13.77;100.00;96403.69;4979796;28;20381;-64
2022/10/21 07:53:05;;;;;;;40.33;24.02;;;;;;;13.55;100.00;96367.94;4978957;28;20038;-63
2022/10/21 07:55:30;;;;;;;46.80;24.75;;;;;;;13.10;100.00;96322.75;4983275;28;20066;-63
2022/10/21 07:57:55;;;;;;;50.38;26.38;;;;;;;13.08;100.00;96325.09;4984103;28;20042;-64
2022/10/21 08:00:21;;;;;;;48.45;25.05;;;;;;;13.17;100.00;96353.78;4976438;28;20070;-63
2022/10/21 08:02:46;;;;;;;46.20;26.63;;;;;;;13.24;100.00;96358.50;4975035;28;20046;-65
2022/10/21 08:05:12;;;;;;;51.60;25.75;;;;;;;13.42;100.00;96360.50;4978515;28;20039;-64
2022/10/21 08:07:37;;;;;;;49.22;22.80;;;;;;;13.69;100.00;96361.66;4980652;28;20050;-65
2022/10/21 08:10:03;;;;;;;35.60;22.58;;;;;;;13.68;100.00;96348.28;4977706;28;20049;-64
2022/10/21 08:12:29;;;;;;;41.45;23.67;;;;;;;13.93;100.00;96362.00;4996656;28;20111;-65
2022/10/21 08:14:54;;;;;;;44.65;22.92;;;;;;;13.96;100.00;96374.97;4988323;28;20070;-63
2022/10/21 08:17:20;;;;;;;42.20;25.70;;;;;;;13.81;100.00;96374.22;4978142;28;20109;-64
2022/10/21 08:19:46;;;;;;;41.13;25.67;;;;;;;13.98;100.00;96374.59;4984229;28;20053;-64
2022/10/21 08:22:11;;;;;;;39.35;22.80;;;;;;;14.31;100.00;96384.31;4976466;28;20042;-64
2022/10/21 08:24:36;;;;;;;36.45;20.40;;;;;;;14.41;100.00;96375.22;4981781;28;20046;-62
2022/10/21 08:27:05;;;;;;;37.30;21.33;;;;;;;14.48;100.00;96383.47;4980613;28;20505;-65
2022/10/21 08:29:30;;;;;;;32.05;18.92;;;;;;;14.50;100.00;96400.38;4981340;28;20038;-64
2022/10/21 08:31:56;;;;;;;34.20;20.23;;;;;;;14.69;100.00;96396.41;4979483;28;20084;-65
2022/10/21 08:34:22;;;;;;;36.58;20.33;;;;;;;14.78;100.00;96386.91;4978741;28;22366;-63
2022/10/21 08:36:47;;;;;;;32.58;20.00;;;;;;;14.74;100.00;96386.13;4986110;28;20042;-64
2022/10/21 08:39:12;;;;;;;32.75;18.60;;;;;;;15.02;100.00;96399.78;4978119;28;20045;-65
2022/10/21 08:41:52;;;;;;;32.58;18.70;;;;;;;15.03;100.00;96390.28;4984103;28;20039;-65
2022/10/21 08:44:34;;;;;;;35.47;20.38;;;;;;;14.90;100.00;96386.44;4971192;28;20116;-65
2022/10/21 08:47:13;;;;;;;36.35;20.48;;;;;;;15.05;100.00;96370.59;4975620;28;20046;-64
2022/10/21 08:50:19;;;;;;;36.47;21.02;;;;;;;14.52;100.00;96362.19;4972831;28;20046;-64
2022/10/21 08:52:47;;;;;;;33.78;20.08;;;;;;;14.83;100.00;96381.75;4981840;28;20046;-64
2022/10/21 08:55:35;;;;;;;34.00;19.52;;;;;;;15.18;100.00;96392.97;4991072;28;20048;-64
2022/10/21 08:58:01;;;;;;;33.25;18.42;;;;;;;15.55;100.00;96395.06;4986702;28;20046;-64
2022/10/21 09:00:46;;;;;;;33.08;19.77;;;;;;;15.61;100.00;96414.72;4969165;28;20104;-64
2022/10/21 09:03:36;;;;;;;36.75;18.95;;;;;;;15.69;100.00;96405.19;4977841;28;20046;-64
2022/10/21 09:06:30;;;;;;;35.50;18.95;;;;;;;15.66;100.00;96444.66;4963364;28;20047;-63
2022/10/21 09:09:02;;;;;;;30.10;19.23;;;;;;;15.75;100.00;96444.22;4961770;28;20648;-65
2022/10/21 09:11:36;;;;;;;33.83;18.55;;;;;;;15.82;100.00;96452.47;4978918;28;20046;-65
2022/10/21 09:14:49;;;;;;;36.42;19.38;;;;;;;15.64;100.00;96456.09;4983385;28;20136;-64
2022/10/21 09:17:33;;;;;;;32.92;21.30;;;;;;;15.23;100.00;96509.22;4966645;28;20035;-64
2022/10/21 09:20:36;;;;;;;46.10;22.67;;;;;;;15.18;100.00;96536.41;4972121;28;20030;-63
2022/10/21 09:23:26;;;;;;;39.17;23.42;;;;;;;15.12;100.00;96538.81;4978927;28;20046;-62
2022/10/21 09:25:57;;;;;;;32.63;20.15;;;;;;;15.21;100.00;96528.13;4986824;28;20054;-65
2022/10/21 09:28:24;;;;;;;32.45;18.77;;;;;;;15.45;100.00;96531.94;4960975;28;20165;-63
2022/10/21 09:30:50;;;;;;;33.10;19.65;;;;;;;15.48;100.00;96528.41;4974585;28;20131;-65
2022/10/21 09:33:28;;;;;;;33.08;18.20;;;;;;;15.58;100.00;96523.22;4977939;28;20049;-63
2022/10/21 09:36:21;;;;;;;29.05;18.83;;;;;;;15.59;100.00;96520.06;4983199;28;20042;-64
2022/10/21 09:39:01;;;;;;;34.80;18.58;;;;;;;15.79;100.00;96527.81;4981555;28;20042;-65
2022/10/21 09:41:36;;;;;;;27.52;17.40;;;;;;;15.99;100.00;96522.53;4978250;28;20043;-65
2022/10/21 09:44:01;;;;;;;29.67;17.73;;;;;;;16.11;100.00;96527.56;4981446;28;20108;-64
2022/10/21 09:46:27;;;;;;;31.92;17.88;;;;;;;16.23;100.00;96531.81;4975569;28;20050;-65
2022/10/21 09:48:55;;;;;;;26.35;14.95;;;;;;;16.43;100.00;96526.50;4978197;28;20124;-65
2022/10/21 09:51:33;;;;;;;28.40;15.95;;;;;;;16.59;100.00;96520.44;4953720;28;20046;-64
2022/10/21 09:54:08;;;;;;;25.75;15.07;;;;;;;16.53;100.00;96519.28;4980674;28;20724;-63
2022/10/21 09:56:57;;;;;;;21.27;14.40;;;;;;;16.49;100.00;96521.31;4972759;28;20039;-65
2022/10/21 09:59:24;;;;;;;24.45;14.77;;;;;;;16.34;100.00;96520.69;4967275;28;20608;-64
2022/10/21 10:01:50;;;;;;;26.85;13.95;;;;;;;16.46;100.00;96517.41;4986102;28;20070;-64
2022/10/21 10:04:22;;;;;;;25.73;13.50;;;;;;;16.25;100.00;96519.16;4983223;28;20038;-67
2022/10/21 10:06:47;;;;;;;24.25;13.00;;;;;;;16.23;100.00;96518.78;4968537;28;20061;-67
2022/10/21 10:09:23;;;;;;;23.05;11.30;;;;;;;16.14;100.00;96515.72;4973385;28;20458;-66
2022/10/21 10:12:15;;;;;;;23.73;11.13;;;;;;;16.18;100.00;96522.00;4965954;28;20503;-66
2022/10/21 10:14:43;;;;;;;17.08;9.98;;;;;;;15.94;100.00;96514.72;4961784;28;20122;-67
2022/10/21 10:17:27;;;;;;;13.38;8.63;;;;;;;15.88;100.00;96527.38;4962539;28;20046;-67
2022/10/21 10:20:14;;;;;;;13.68;8.13;;;;;;;15.84;100.00;96538.44;4981960;28;20054;-67
2022/10/21 10:22:47;;;;;;;16.02;8.43;;;;;;;15.92;100.00;96537.22;4986990;28;20104;-67
2022/10/21 10:25:23;;;;;;;17.55;8.80;;;;;;;15.83;100.00;96534.13;4986490;28;20054;-66
2022/10/21 10:28:01;;;;;;;20.13;11.10;;;;;;;15.77;100.00;96539.28;4990241;28;20469;-66
2022/10/21 10:30:49;;;;;;;17.20;9.83;;;;;;;15.80;100.00;96546.75;4976873;28;20136;-65
2022/10/21 10:33:25;;;;;;;14.75;9.05;;;;;;;15.85;100.00;96545.53;4993537;28;20192;-66
2022/10/21 10:35:54;;;;;;;15.00;7.97;;;;;;;15.85;100.00;96534.50;4985344;28;20040;-66
2022/10/21 10:38:28;;;;;;;13.27;6.93;;;;;;;15.79;100.00;96534.16;4981667;28;20523;-66
2022/10/21 10:41:03;;;;;;;13.75;8.30;;;;;;;15.78;100.00;96542.84;4968069;28;20133;-65
2022/10/21 10:43:32;;;;;;;12.27;6.40;;;;;;;15.62;100.00;96541.31;4965192;28;20046;-67
2022/10/21 10:46:01;;;;;;;12.30;5.22;;;;;;;15.62;100.00;96541.31;4984379;28;20138;-66
2022/10/21 10:48:32;;;;;;;13.45;5.38;;;;;;;15.66;100.00;96538.53;4981224;28;20046;-67
2022/10/21 10:50:57;;;;;;;8.40;4.50;;;;;;;15.59;100.00;96533.84;4984074;28;20562;-68
2022/10/21 10:53:31;;;;;;;7.97;4.63;;;;;;;15.68;100.00;96531.44;4975678;28;20143;-61
2022/10/21 10:56:11;;;;;;;8.02;4.65;;;;;;;15.88;100.00;96541.19;4984304;28;20046;-62
2022/10/21 10:58:42;;;;;;;10.55;4.82;;;;;;;16.00;100.00;96533.19;4985020;28;20121;-63
2022/10/21 11:01:15;;;;;;;8.00;4.28;;;;;;;16.05;100.00;96518.94;4979600;28;20039;-64
2022/10/21 11:03:47;;;;;;;9.80;4.10;;;;;;;16.12;100.00;96511.81;4973226;28;20050;-64
2022/10/21 11:06:16;;;;;;;7.03;3.70;;;;;;;16.17;100.00;96506.63;4976756;28;20045;-65
2022/10/21 11:08:47;;;;;;;13.53;3.97;;;;;;;16.14;100.00;96515.72;4974036;28;20050;-66
2022/10/21 11:11:18;;;;;;;9.45;3.85;;;;;;;16.13;100.00;96507.84;4979502;28;20089;-64
2022/10/21 11:13:44;;;;;;;11.55;4.45;;;;;;;16.03;100.00;96512.25;4980718;28;20093;-65
2022/10/21 11:16:28;;;;;;;10.82;4.50;;;;;;;15.96;100.00;96526.13;4978853;28;20042;-64
2022/10/21 11:18:53;;;;;;;13.48;4.57;;;;;;;15.98;100.00;96523.75;4983535;28;20125;-63
2022/10/21 11:21:27;;;;;;;6.82;3.72;;;;;;;16.08;100.00;96520.13;4979739;28;20474;-65
2022/10/21 11:24:06;;;;;;;7.70;4.00;;;;;;;16.23;100.00;96512.50;4982138;28;20403;-63